createdAt,value
2022-08-09T00:02:03.300Z,99664.47
2022-08-09T00:04:36.898Z,99670.64
2022-08-09T00:07:12.984Z,99676.09
2022-08-09T00:09:46.328Z,99683.42
2022-08-09T00:12:24.439Z,99693.36
2022-08-09T00:14:58.407Z,99689.13
2022-08-09T00:21:19.012Z,99669.75
2022-08-09T00:24:07.748Z,99664.58
2022-08-09T00:26:42.683Z,99657.41
2022-08-09T00:30:16.179Z,99644.13
2022-08-09T00:31:59.893Z,99644.13
2022-08-09T00:34:27.175Z,99637.00
2022-08-09T00:37:02.254Z,99623.77
2022-08-09T00:40:13.899Z,99619.31
2022-08-09T00:44:13.074Z,99617.56
2022-08-09T00:44:46.940Z,99615.88
2022-08-09T00:47:20.442Z,99611.52
2022-08-09T00:49:56.505Z,99608.95
2022-08-09T00:52:32.452Z,99592.28
2022-08-09T00:55:08.098Z,99587.86
2022-08-09T00:57:43.023Z,99575.52
2022-08-09T01:00:23.657Z,99572.02
2022-08-09T01:02:58.299Z,99580.00
2022-08-09T01:05:51.069Z,99585.34
2022-08-09T01:08:13.810Z,99588.93
2022-08-09T01:10:55.245Z,99594.35
2022-08-09T01:13:41.728Z,99589.20
2022-08-09T01:16:10.469Z,99592.73
2022-08-09T01:18:47.447Z,99590.13
2022-08-09T01:21:24.870Z,99585.67
2022-08-09T01:24:05.347Z,99584.04
2022-08-09T01:27:00.496Z,99574.45
2022-08-09T01:29:55.191Z,99570.95
2022-08-09T01:32:31.281Z,99571.89
2022-08-09T01:34:51.489Z,99574.61
2022-08-09T01:38:06.440Z,99578.11
2022-08-09T01:40:04.362Z,99572.00
2022-08-09T01:42:38.435Z,99563.25
2022-08-09T01:45:13.789Z,99571.16
2022-08-09T01:47:49.737Z,99568.52
2022-08-09T01:50:28.984Z,99569.39
2022-08-09T01:53:01.985Z,99564.14
2022-08-09T01:55:38.811Z,99565.94
2022-08-09T01:58:14.404Z,99566.83
2022-08-09T02:00:50.967Z,99560.69
2022-08-09T02:03:27.203Z,99558.91
2022-08-09T02:06:06.449Z,99556.25
2022-08-09T02:08:57.717Z,99564.89
2022-08-09T02:11:17.084Z,99578.01
2022-08-09T02:14:06.512Z,99569.20
2022-08-09T02:16:33.625Z,99582.39
2022-08-09T02:19:02.001Z,99586.05
2022-08-09T02:21:38.329Z,99590.52
2022-08-09T02:24:13.202Z,99588.81
2022-08-09T02:26:50.593Z,99589.70
2022-08-09T02:32:18.819Z,99609.01
2022-08-09T02:34:57.702Z,99609.98
2022-08-09T02:37:36.677Z,99610.80
2022-08-09T02:40:12.838Z,99609.88
2022-08-09T02:42:51.218Z,99621.23
2022-08-09T02:45:29.620Z,99625.55
2022-08-09T02:48:06.196Z,99620.22
2022-08-09T02:50:43.544Z,99623.66
2022-08-09T02:53:26.670Z,99637.61
2022-08-09T02:56:01.028Z,99639.26
2022-08-09T02:58:38.050Z,99636.56
2022-08-09T03:01:15.304Z,99631.29
2022-08-09T03:04:17.538Z,99631.20
2022-08-09T03:06:27.249Z,99625.78
2022-08-09T03:09:03.157Z,99633.70
2022-08-09T03:12:06.287Z,99636.34
2022-08-09T03:14:15.924Z,99636.31
2022-08-09T03:16:50.048Z,99639.67
2022-08-09T03:22:25.724Z,99638.52
2022-08-09T03:24:52.178Z,99637.83
2022-08-09T03:27:24.831Z,99643.05
2022-08-09T03:30:01.383Z,99638.66
2022-08-09T03:32:38.403Z,99640.42
2022-08-09T03:35:24.265Z,99640.27
2022-08-09T03:37:56.706Z,99643.70
2022-08-09T03:40:24.705Z,99640.91
2022-08-09T03:42:57.852Z,99642.47
2022-08-09T03:48:12.626Z,99640.13
2022-08-09T03:50:48.502Z,99631.41
2022-08-09T03:53:23.962Z,99622.55
2022-08-09T03:55:58.923Z,99618.94
2022-08-09T03:58:32.098Z,99623.30
2022-08-09T04:01:07.222Z,99618.76
2022-08-09T04:04:01.359Z,99631.16
2022-08-09T04:06:16.172Z,99622.45
2022-08-09T04:08:49.925Z,99634.84
2022-08-09T04:11:24.997Z,99626.02
2022-08-09T04:15:00.656Z,99631.27
2022-08-09T04:16:33.071Z,99642.70
2022-08-09T04:19:11.171Z,99644.34
2022-08-09T04:21:41.369Z,99633.40
2022-08-09T04:24:15.066Z,99634.84
2022-08-09T04:26:48.101Z,99620.36
2022-08-09T04:29:22.560Z,99633.47
2022-08-09T04:31:58.643Z,99640.55
2022-08-09T04:34:36.397Z,99641.45
2022-08-09T04:37:17.523Z,99648.45
2022-08-09T04:39:52.471Z,99649.23
2022-08-09T04:42:33.991Z,99642.05
2022-08-09T04:45:08.935Z,99647.22
2022-08-09T04:47:58.726Z,99639.95
2022-08-09T04:50:16.862Z,99636.06
2022-08-09T04:52:53.137Z,99632.96
2022-08-09T04:55:26.740Z,99623.17
2022-08-09T04:58:01.907Z,99632.06
2022-08-09T05:00:36.764Z,99630.98
2022-08-09T05:03:30.248Z,99620.95
2022-08-09T05:05:51.741Z,99621.64
2022-08-09T05:08:22.713Z,99622.36
2022-08-09T05:10:57.626Z,99620.80
2022-08-09T05:13:32.902Z,99611.90
2022-08-09T05:16:08.485Z,99615.20
2022-08-09T05:18:59.286Z,99606.13
2022-08-09T05:21:22.983Z,99611.38
2022-08-09T05:24:00.647Z,99606.09
2022-08-09T05:26:46.098Z,99614.05
2022-08-09T05:29:17.415Z,99613.26
2022-08-09T05:32:05.980Z,99613.23
2022-08-09T05:34:39.048Z,99609.73
2022-08-09T05:37:13.971Z,99625.65
2022-08-09T05:39:47.227Z,99623.12
2022-08-09T05:42:27.867Z,99624.86
2022-08-09T05:44:57.013Z,99630.97
2022-08-09T05:47:33.094Z,99635.63
2022-08-09T05:50:30.097Z,99632.27
2022-08-09T05:52:53.429Z,99633.25
2022-08-09T05:55:25.191Z,99630.65
2022-08-09T05:57:58.845Z,99628.00
2022-08-09T06:00:37.431Z,99626.05
2022-08-09T06:03:11.170Z,99619.39
2022-08-09T06:05:50.241Z,99625.34
2022-08-09T06:08:24.388Z,99619.98
2022-08-09T06:11:00.621Z,99609.42
2022-08-09T06:13:44.855Z,99620.43
2022-08-09T06:16:38.670Z,99612.14
2022-08-09T06:23:57.874Z,99608.27
2022-08-09T06:26:34.416Z,99613.10
2022-08-09T06:29:15.819Z,99608.95
2022-08-09T06:34:53.205Z,99606.24
2022-08-09T06:40:27.264Z,99613.84
2022-08-09T06:43:07.669Z,99618.91
2022-08-09T06:46:04.970Z,99609.66
2022-08-09T06:48:36.698Z,99608.77
2022-08-09T06:51:15.775Z,99606.34
2022-08-09T06:53:52.084Z,99614.39
2022-08-09T06:56:46.189Z,99608.83
2022-08-09T07:00:48.790Z,99612.78
2022-08-09T07:02:20.080Z,99609.08
2022-08-09T07:04:57.018Z,99602.67
2022-08-09T07:08:00.932Z,99597.87
2022-08-09T07:10:22.474Z,99603.27
2022-08-09T07:12:44.842Z,99600.88
2022-08-09T07:15:53.785Z,99599.55
2022-08-09T07:20:43.458Z,99591.91
2022-08-09T07:23:18.689Z,99595.73
2022-08-09T07:26:02.313Z,99589.60
2022-08-09T07:28:29.195Z,99593.98
2022-08-09T07:31:04.172Z,99592.31
2022-08-09T07:33:52.920Z,99588.20
2022-08-09T07:36:15.071Z,99596.72
2022-08-09T07:38:58.353Z,99594.83
2022-08-09T07:41:25.163Z,99607.84
2022-08-09T07:43:59.892Z,99593.94
2022-08-09T07:46:37.972Z,99595.61
2022-08-09T07:49:16.799Z,99600.41
2022-08-09T07:52:05.749Z,99606.56
2022-08-09T07:54:30.852Z,99604.16
2022-08-09T07:57:11.880Z,99603.13
2022-08-09T07:59:52.227Z,99602.38
2022-08-09T08:02:20.251Z,99599.49
2022-08-09T08:04:53.849Z,99599.20
2022-08-09T08:08:43.231Z,99598.38
2022-08-09T08:10:08.816Z,99595.48
2022-08-09T08:12:50.331Z,99601.05
2022-08-09T08:16:29.799Z,99599.69
2022-08-09T08:18:53.756Z,99612.09
2022-08-09T08:21:39.479Z,99602.73
2022-08-09T08:30:55.258Z,99614.65
2022-08-09T08:33:49.527Z,99627.27
2022-08-09T08:36:12.020Z,99634.70
2022-08-09T08:38:49.632Z,99634.65
2022-08-09T08:41:23.672Z,99624.61
2022-08-09T08:44:04.431Z,99622.17
2022-08-09T08:53:15.916Z,99632.77
2022-08-09T08:55:58.608Z,99635.25
2022-08-09T08:58:44.440Z,99631.05
2022-08-09T09:01:25.131Z,99629.55
2022-08-09T09:04:00.228Z,99640.24
2022-08-09T09:06:57.449Z,99640.94
2022-08-09T09:09:58.029Z,99636.31
2022-08-09T09:12:18.535Z,99642.45
2022-08-09T09:14:55.614Z,99638.75
2022-08-09T09:17:46.448Z,99646.03
2022-08-09T09:20:06.691Z,99631.52
2022-08-09T09:23:01.706Z,99626.96
2022-08-09T09:26:04.056Z,99631.95
2022-08-09T09:29:02.783Z,99626.23
2022-08-09T09:34:25.307Z,99615.12
2022-08-09T09:37:01.801Z,99628.88
2022-08-09T09:39:54.658Z,99633.30
2022-08-09T09:42:32.684Z,99639.08
2022-08-09T09:48:12.012Z,99625.89
2022-08-09T09:50:50.896Z,99622.50
2022-08-09T09:53:34.423Z,99629.84
2022-08-09T09:56:30.945Z,99614.58
2022-08-09T09:58:53.511Z,99614.27
2022-08-09T10:01:31.229Z,99623.10
2022-08-09T10:04:09.921Z,99623.54
2022-08-09T10:06:51.961Z,99610.84
2022-08-09T10:09:24.395Z,99593.31
2022-08-09T10:12:12.102Z,99609.30
2022-08-09T10:14:39.754Z,99621.84
2022-08-09T10:23:03.140Z,99620.61
2022-08-09T10:26:06.007Z,99619.47
2022-08-09T10:28:11.129Z,99613.88
2022-08-09T10:32:20.933Z,99620.59
2022-08-09T10:34:07.880Z,99609.54
2022-08-09T10:36:11.525Z,99613.09
2022-08-09T10:38:56.103Z,99607.64
2022-08-09T10:41:22.678Z,99605.03
2022-08-09T10:44:01.868Z,99609.73
2022-08-09T10:46:57.588Z,99610.39
2022-08-09T10:49:49.709Z,99613.76
2022-08-09T10:52:13.612Z,99620.27
2022-08-09T10:54:53.298Z,99620.57
2022-08-09T10:57:37.680Z,99618.83
2022-08-09T11:00:36.011Z,99612.52
2022-08-09T11:03:49.766Z,99610.87
2022-08-09T11:06:28.587Z,99617.78
2022-08-09T11:09:15.780Z,99613.70
2022-08-09T11:12:21.292Z,99620.33
2022-08-09T11:15:02.359Z,99618.98
2022-08-09T11:18:02.764Z,99621.61
2022-08-09T11:20:56.981Z,99615.04
2022-08-09T11:23:55.316Z,99628.24
2022-08-09T11:26:52.218Z,99628.67
2022-08-09T11:30:05.822Z,99622.49
2022-08-09T11:35:47.272Z,99618.70
2022-08-09T11:38:22.397Z,99627.04
2022-08-09T11:40:57.055Z,99626.98
2022-08-09T11:43:45.671Z,99626.45
2022-08-09T11:46:33.087Z,99621.94
2022-08-09T11:48:58.157Z,99620.91
2022-08-09T11:53:00.758Z,99627.02
2022-08-09T11:54:28.927Z,99629.39
2022-08-09T11:59:37.993Z,99615.19
2022-08-09T12:02:18.263Z,99604.60
2022-08-09T12:04:58.126Z,99627.25
2022-08-09T12:07:41.666Z,99627.94
2022-08-09T12:10:07.724Z,99623.66
2022-08-09T12:12:52.958Z,99616.48
2022-08-09T12:15:48.566Z,99618.58
2022-08-09T12:18:03.190Z,99622.21
2022-08-09T12:20:38.186Z,99622.22
2022-08-09T12:23:13.003Z,99623.53
2022-08-09T12:25:54.572Z,99628.16
2022-08-09T12:29:09.804Z,99621.65
2022-08-09T12:31:58.510Z,99628.51
2022-08-09T12:34:01.997Z,99617.70
2022-08-09T12:36:38.422Z,99622.56
2022-08-09T12:39:17.746Z,99618.35
2022-08-09T12:41:53.882Z,99616.75
2022-08-09T12:44:28.930Z,99612.52
2022-08-09T12:47:04.802Z,99611.25
2022-08-09T12:49:39.394Z,99622.02
2022-08-09T12:52:18.305Z,99616.22
2022-08-09T12:56:12.209Z,99615.59
2022-08-09T12:57:43.093Z,99607.28
2022-08-09T13:00:31.141Z,99611.44
2022-08-09T13:03:20.666Z,99606.77
2022-08-09T13:06:10.729Z,99596.91
2022-08-09T13:08:35.406Z,99605.04
2022-08-09T13:11:13.280Z,99602.47
2022-08-09T13:14:37.305Z,99601.19
2022-08-09T13:16:17.615Z,99604.06
2022-08-09T13:18:54.326Z,99600.95
2022-08-09T13:22:38.180Z,99593.63
2022-08-09T13:24:44.903Z,99604.30
2022-08-09T13:26:49.859Z,99599.08
2022-08-09T13:29:28.561Z,99602.30
2022-08-09T13:32:17.562Z,99601.47
2022-08-09T13:34:43.093Z,99606.64
2022-08-09T13:37:50.868Z,99607.16
2022-08-09T13:41:51.801Z,99599.38
2022-08-09T13:42:29.083Z,99587.72
2022-08-09T13:45:12.201Z,99591.05
2022-08-09T13:47:49.506Z,99588.14
2022-08-09T13:50:30.329Z,99590.84
2022-08-09T13:52:54.827Z,99600.05
2022-08-09T13:55:30.407Z,99598.34
2022-08-09T13:58:05.004Z,99601.64
2022-08-09T14:00:50.630Z,99597.39
2022-08-09T14:04:01.137Z,99603.80
2022-08-09T14:05:57.259Z,99605.52
2022-08-09T14:08:23.907Z,99607.69
2022-08-09T14:10:59.600Z,99602.95
2022-08-09T14:14:22.539Z,99604.19
2022-08-09T14:16:11.937Z,99605.50
2022-08-09T14:18:50.092Z,99604.27
2022-08-09T14:21:29.511Z,99608.48
2022-08-09T14:24:10.399Z,99604.67
2022-08-09T14:26:41.365Z,99609.24
2022-08-09T14:30:03.917Z,99607.27
2022-08-09T14:31:55.535Z,99609.41
2022-08-09T14:34:32.528Z,99605.99
2022-08-09T14:37:08.525Z,99614.44
2022-08-09T14:39:47.823Z,99619.11
2022-08-09T14:42:30.950Z,99610.30
2022-08-09T14:44:59.616Z,99615.14
2022-08-09T14:47:45.270Z,99606.91
2022-08-09T14:50:09.420Z,99612.97
2022-08-09T14:52:50.009Z,99611.36
2022-08-09T14:55:20.980Z,99616.49
2022-08-09T14:57:56.217Z,99618.52
2022-08-09T15:00:31.215Z,99624.67
2022-08-09T15:03:06.963Z,99632.54
2022-08-09T15:05:52.376Z,99628.93
2022-08-09T15:08:19.725Z,99628.13
2022-08-09T15:11:00.964Z,99630.69
2022-08-09T15:13:55.957Z,99632.50
2022-08-09T15:16:11.277Z,99636.55
2022-08-09T15:18:49.086Z,99623.76
2022-08-09T15:22:01.889Z,99626.51
2022-08-09T15:24:05.935Z,99620.27
2022-08-09T15:26:31.922Z,99622.95
2022-08-09T15:29:06.376Z,99625.78
2022-08-09T15:31:42.469Z,99627.87
2022-08-09T15:34:34.486Z,99621.28
2022-08-09T15:36:58.298Z,99618.25
2022-08-09T15:39:34.442Z,99616.31
2022-08-09T15:42:10.243Z,99618.41
2022-08-09T15:44:43.590Z,99615.29
2022-08-09T15:47:22.886Z,99615.77
2022-08-09T15:52:38.083Z,99610.30
2022-08-09T15:55:18.394Z,99618.80
2022-08-09T15:57:53.358Z,99573.34
2022-08-09T16:00:27.765Z,99619.06
2022-08-09T16:03:01.076Z,99617.39
2022-08-09T16:05:54.667Z,99607.91
2022-08-09T16:08:15.165Z,99604.30
2022-08-09T16:10:55.773Z,99610.13
2022-08-09T16:14:04.709Z,99604.39
2022-08-09T16:16:10.740Z,99608.47
2022-08-09T16:18:36.801Z,99611.30
2022-08-09T16:21:11.970Z,99610.23
2022-08-09T16:23:54.873Z,99606.33
2022-08-09T16:26:33.827Z,99609.19
2022-08-09T16:28:58.783Z,99608.73
2022-08-09T16:32:10.463Z,99615.88
2022-08-09T16:34:08.276Z,99621.47
2022-08-09T16:36:41.925Z,99624.52
2022-08-09T16:39:21.210Z,99617.80
2022-08-09T16:42:04.035Z,99625.78
2022-08-09T16:44:35.709Z,99635.01
2022-08-09T16:48:42.405Z,99632.34
2022-08-09T16:52:32.227Z,99640.30
2022-08-09T16:55:08.055Z,99635.87
2022-08-09T16:58:08.519Z,99630.03
2022-08-09T17:00:23.778Z,99639.23
2022-08-09T17:02:58.171Z,99632.67
2022-08-09T17:06:08.403Z,99639.43
2022-08-09T17:08:46.351Z,99639.80
2022-08-09T17:10:43.580Z,99637.72
2022-08-09T17:13:20.461Z,99638.36
2022-08-09T17:16:02.310Z,99647.68
2022-08-09T17:18:36.078Z,99640.31
2022-08-09T17:21:12.408Z,99645.45
2022-08-09T17:24:27.222Z,99654.94
2022-08-09T17:26:38.301Z,99653.83
2022-08-09T17:32:02.330Z,99662.36
2022-08-09T17:35:02.106Z,99659.95
2022-08-09T17:38:02.150Z,99658.37
2022-08-09T17:40:16.993Z,99660.30
2022-08-09T17:42:47.781Z,99657.16
2022-08-09T17:45:37.411Z,99652.14
2022-08-09T17:48:02.816Z,99649.64
2022-08-09T17:50:37.033Z,99654.23
2022-08-09T17:53:19.695Z,99656.17
2022-08-09T17:55:49.379Z,99655.70
2022-08-09T17:58:19.229Z,99651.37
2022-08-09T18:00:54.978Z,99637.34
2022-08-09T18:03:30.372Z,99639.16
2022-08-09T18:06:04.810Z,99652.53
2022-08-09T18:08:40.996Z,99646.48
2022-08-09T18:11:16.381Z,99644.09
2022-08-09T18:13:58.956Z,99639.80
2022-08-09T18:16:29.348Z,99647.92
2022-08-09T18:20:54.790Z,99639.22
2022-08-09T18:21:57.658Z,99640.28
2022-08-09T18:24:40.852Z,99640.44
2022-08-09T18:28:02.211Z,99642.35
2022-08-09T18:30:34.624Z,99642.45
2022-08-09T18:32:36.107Z,99619.09
2022-08-09T18:35:11.894Z,99646.15
2022-08-09T18:37:54.888Z,99643.56
2022-08-09T18:40:26.792Z,99643.66
2022-08-09T18:42:59.749Z,99644.67
2022-08-09T18:46:46.993Z,99646.66
2022-08-09T18:48:10.181Z,99661.78
2022-08-09T18:50:47.285Z,99658.53
2022-08-09T18:53:25.832Z,99656.92
2022-08-09T18:56:05.465Z,99657.02
2022-08-09T18:59:01.039Z,99666.77
2022-08-09T19:12:10.968Z,99637.09
2022-08-09T19:14:46.234Z,99642.80
2022-08-09T19:18:17.150Z,99649.91
2022-08-09T19:21:00.617Z,99647.30
2022-08-09T19:31:45.228Z,99652.81
2022-08-09T19:34:39.361Z,99650.97
2022-08-09T19:37:03.771Z,99649.13
2022-08-09T19:40:04.769Z,99658.80
2022-08-09T19:42:28.258Z,99658.87
2022-08-09T19:45:40.451Z,99655.46
2022-08-09T19:49:00.662Z,99652.00
2022-08-09T19:51:31.356Z,99651.41
2022-08-09T19:57:01.808Z,99648.17
2022-08-09T20:00:05.453Z,99654.64
2022-08-09T20:05:25.036Z,99650.20
2022-08-09T20:20:27.207Z,99640.48
2022-08-09T20:22:56.473Z,99640.48
2022-08-09T20:28:47.590Z,99639.88
2022-08-09T20:31:16.791Z,99647.10
2022-08-09T20:33:58.429Z,99642.77
2022-08-09T20:36:41.593Z,99649.89
2022-08-09T20:39:29.175Z,99599.41
2022-08-09T20:41:52.003Z,99652.67
2022-08-09T20:44:29.594Z,99660.67
2022-08-09T20:47:03.767Z,99661.66
2022-08-09T20:49:38.513Z,99640.74
2022-08-09T20:52:14.760Z,99658.29
2022-08-09T20:54:52.606Z,99661.03
2022-08-09T20:57:32.174Z,99654.05
2022-08-09T21:00:20.353Z,99658.55
2022-08-09T21:02:37.868Z,99650.67
2022-08-09T21:05:52.813Z,99642.81
2022-08-09T21:07:56.208Z,99651.69
2022-08-09T21:10:30.424Z,99649.14
2022-08-09T21:13:04.343Z,99651.78
2022-08-09T21:15:38.178Z,99656.20
2022-08-09T21:18:29.636Z,99659.80
2022-08-09T21:20:54.033Z,99655.50
2022-08-09T21:23:36.106Z,99653.74
2022-08-09T21:25:59.679Z,99654.59
2022-08-09T21:28:36.460Z,99655.49
2022-08-09T21:31:17.766Z,99649.41
2022-08-09T21:33:49.428Z,99643.27
2022-08-09T21:36:28.841Z,99643.29
2022-08-09T21:39:07.383Z,99642.43
2022-08-09T21:42:03.782Z,99642.43
2022-08-09T21:44:33.992Z,99642.45
2022-08-09T21:46:54.611Z,99637.23
2022-08-09T21:49:29.325Z,99640.84
2022-08-09T21:52:04.382Z,99647.05
2022-08-09T21:54:46.244Z,99648.05
2022-08-09T21:57:25.544Z,99650.70
2022-08-09T21:59:54.825Z,99641.03
2022-08-09T22:02:35.952Z,99631.39
2022-08-09T22:05:16.788Z,99629.61
2022-08-09T22:07:41.730Z,99627.91
2022-08-09T22:10:13.788Z,99638.47
2022-08-09T22:12:49.993Z,99627.11
2022-08-09T22:15:34.625Z,99629.77
2022-08-09T22:18:01.970Z,99628.93
2022-08-09T22:20:35.587Z,99633.34
2022-08-09T22:23:10.799Z,99634.23
2022-08-09T22:26:06.708Z,99620.20
2022-08-09T22:28:21.052Z,99632.58
2022-08-09T22:30:55.098Z,99633.52
2022-08-09T22:33:37.558Z,99634.48
2022-08-09T22:36:05.185Z,99641.52
2022-08-09T22:38:39.822Z,99643.34
2022-08-09T22:41:14.529Z,99633.75
2022-08-09T22:44:01.642Z,99643.46
2022-08-09T22:48:11.989Z,99646.14
2022-08-09T22:48:59.920Z,99645.27
2022-08-09T22:51:34.176Z,99641.75
2022-08-09T22:54:10.897Z,99650.59
2022-08-09T22:56:45.377Z,99649.73
2022-08-09T22:59:55.587Z,99643.62
2022-08-09T23:01:58.082Z,99645.38
2022-08-09T23:04:32.561Z,99646.29
2022-08-09T23:07:31.027Z,99651.63
2022-08-09T23:10:02.886Z,99648.15
2022-08-09T23:12:36.059Z,99652.62
2022-08-09T23:15:10.604Z,99646.50
2022-08-09T23:17:43.706Z,99647.40
2022-08-09T23:20:16.788Z,99658.89
2022-08-09T23:22:50.028Z,99651.86
2022-08-09T23:25:23.200Z,99656.23
2022-08-09T23:28:14.018Z,99651.89
2022-08-09T23:30:30.968Z,99651.07
2022-08-09T23:33:03.891Z,99650.23
2022-08-09T23:36:04.367Z,99656.39
2022-08-09T23:38:14.187Z,99659.91
2022-08-09T23:40:47.389Z,99655.53
2022-08-09T23:43:20.616Z,99652.06
2022-08-09T23:45:53.790Z,99655.59
2022-08-09T23:48:26.941Z,99652.96
2022-08-09T23:51:00.342Z,99651.24
2022-08-09T23:53:37.848Z,99646.84
2022-08-09T23:56:08.804Z,99645.06
2022-08-09T23:58:42.103Z,99647.69
